sensor_id;sensor_type;location;lat;lon;timestamp;pressure;altitude;pressure_sealevel;temperature;humidity
29371;BME280;16357;52.188;7.838;2023-02-13T00:00:16;103058.75;;;11.74;59.98
29371;BME280;16357;52.188;7.838;2023-02-13T00:02:43;103052.59;;;11.72;60.12
29371;BME280;16357;52.188;7.838;2023-02-13T00:05:10;103057.97;;;11.72;59.99
29371;BME280;16357;52.188;7.838;2023-02-13T00:07:37;103051.75;;;11.72;60.07
29371;BME280;16357;52.188;7.838;2023-02-13T00:10:03;103049.91;;;11.72;60.21
29371;BME280;16357;52.188;7.838;2023-02-13T00:12:30;103053.56;;;11.71;60.06
29371;BME280;16357;52.188;7.838;2023-02-13T00:14:56;103052.69;;;11.71;60.33
29371;BME280;16357;52.188;7.838;2023-02-13T00:17:24;103049.16;;;11.70;60.23
29371;BME280;16357;52.188;7.838;2023-02-13T00:19:51;103049.16;;;11.70;60.30
29371;BME280;16357;52.188;7.838;2023-02-13T00:22:18;103045.63;;;11.70;60.40
29371;BME280;16357;52.188;7.838;2023-02-13T00:24:44;103052.69;;;11.71;60.33
29371;BME280;16357;52.188;7.838;2023-02-13T00:27:11;103052.69;;;11.71;60.36
29371;BME280;16357;52.188;7.838;2023-02-13T00:29:38;103053.56;;;11.71;60.23
29371;BME280;16357;52.188;7.838;2023-02-13T00:32:04;103049.06;;;11.72;60.19
29371;BME280;16357;52.188;7.838;2023-02-13T00:34:31;103046.38;;;11.72;60.06
29371;BME280;16357;52.188;7.838;2023-02-13T00:36:57;103041.84;;;11.72;60.23
29371;BME280;16357;52.188;7.838;2023-02-13T00:39:24;103037.41;;;11.71;60.09
29371;BME280;16357;52.188;7.838;2023-02-13T00:41:50;103041.00;;;11.72;59.99
29371;BME280;16357;52.188;7.838;2023-02-13T00:44:16;103045.50;;;11.71;59.96
29371;BME280;16357;52.188;7.838;2023-02-13T00:46:43;103035.72;;;11.70;59.99
29371;BME280;16357;52.188;7.838;2023-02-13T00:49:09;103030.44;;;11.69;60.11
29371;BME280;16357;52.188;7.838;2023-02-13T00:51:36;103039.38;;;11.69;60.00
29371;BME280;16357;52.188;7.838;2023-02-13T00:54:02;103032.25;;;11.68;60.00
29371;BME280;16357;52.188;7.838;2023-02-13T00:56:28;103043.88;;;11.69;59.94
29371;BME280;16357;52.188;7.838;2023-02-13T00:58:55;103034.94;;;11.68;60.16
29371;BME280;16357;52.188;7.838;2023-02-13T01:01:21;103043.00;;;11.68;59.92
29371;BME280;16357;52.188;7.838;2023-02-13T01:03:48;103044.00;;;11.67;60.02
29371;BME280;16357;52.188;7.838;2023-02-13T01:06:14;103051.22;;;11.67;60.04
29371;BME280;16357;52.188;7.838;2023-02-13T01:08:41;103050.31;;;11.66;59.98
29371;BME280;16357;52.188;7.838;2023-02-13T01:11:08;103044.94;;;11.66;60.18
29371;BME280;16357;52.188;7.838;2023-02-13T01:13:35;103047.63;;;11.66;60.18
29371;BME280;16357;52.188;7.838;2023-02-13T01:16:01;103046.78;;;11.65;60.04
29371;BME280;16357;52.188;7.838;2023-02-13T01:18:28;103045.06;;;11.64;60.04
29371;BME280;16357;52.188;7.838;2023-02-13T01:20:59;103045.94;;;11.65;60.09
29371;BME280;16357;52.188;7.838;2023-02-13T01:23:36;103039.69;;;11.64;60.01
29371;BME280;16357;52.188;7.838;2023-02-13T01:26:04;103038.84;;;11.64;59.98
29371;BME280;16357;52.188;7.838;2023-02-13T01:28:31;103036.25;;;11.62;59.89
29371;BME280;16357;52.188;7.838;2023-02-13T01:30:58;103039.91;;;11.61;59.97
29371;BME280;16357;52.188;7.838;2023-02-13T01:33:26;103033.66;;;11.61;60.06
29371;BME280;16357;52.188;7.838;2023-02-13T01:35:53;103029.25;;;11.60;60.19
29371;BME280;16357;52.188;7.838;2023-02-13T01:38:20;103032.91;;;11.59;60.09
29371;BME280;16357;52.188;7.838;2023-02-13T01:40:48;103031.19;;;11.58;60.22
29371;BME280;16357;52.188;7.838;2023-02-13T01:43:14;103024.09;;;11.57;60.15
29371;BME280;16357;52.188;7.838;2023-02-13T01:45:43;103025.81;;;11.58;60.15
29371;BME280;16357;52.188;7.838;2023-02-13T01:48:18;103024.94;;;11.57;60.18
29371;BME280;16357;52.188;7.838;2023-02-13T01:50:50;103021.41;;;11.57;60.08
29371;BME280;16357;52.188;7.838;2023-02-13T01:53:25;103020.56;;;11.56;60.09
29371;BME280;16357;52.188;7.838;2023-02-13T01:56:10;103021.41;;;11.57;60.04
29371;BME280;16357;52.188;7.838;2023-02-13T01:58:40;103022.38;;;11.56;60.19
29371;BME280;16357;52.188;7.838;2023-02-13T02:01:08;103018.94;;;11.54;60.11
29371;BME280;16357;52.188;7.838;2023-02-13T02:03:59;103015.47;;;11.52;60.02
29371;BME280;16357;52.188;7.838;2023-02-13T02:06:59;103008.41;;;11.51;59.97
29371;BME280;16357;52.188;7.838;2023-02-13T02:09:25;103013.88;;;11.49;60.02
29371;BME280;16357;52.188;7.838;2023-02-13T02:11:59;103010.31;;;11.49;60.10
29371;BME280;16357;52.188;7.838;2023-02-13T02:14:27;103000.88;;;11.43;60.36
29371;BME280;16357;52.188;7.838;2023-02-13T02:16:53;103002.66;;;11.42;60.36
29371;BME280;16357;52.188;7.838;2023-02-13T02:22:10;103008.16;;;11.41;60.23
29371;BME280;16357;52.188;7.838;2023-02-13T02:31:00;103015.69;;;11.36;60.39
29371;BME280;16357;52.188;7.838;2023-02-13T02:45:07;102999.88;;;11.31;60.48
29371;BME280;16357;52.188;7.838;2023-02-13T02:47:58;102995.47;;;11.30;60.46
29371;BME280;16357;52.188;7.838;2023-02-13T02:51:01;102998.16;;;11.30;60.50
29371;BME280;16357;52.188;7.838;2023-02-13T02:56:09;102990.31;;;11.27;60.43
29371;BME280;16357;52.188;7.838;2023-02-13T02:58:45;102988.56;;;11.26;60.32
29371;BME280;16357;52.188;7.838;2023-02-13T03:01:32;102992.34;;;11.24;60.45
29371;BME280;16357;52.188;7.838;2023-02-13T03:04:19;102989.56;;;11.25;60.43
29371;BME280;16357;52.188;7.838;2023-02-13T03:07:08;102978.03;;;11.23;60.28
29371;BME280;16357;52.188;7.838;2023-02-13T03:09:38;102991.56;;;11.21;60.25
29371;BME280;16357;52.188;7.838;2023-02-13T03:12:29;102988.25;;;11.18;60.52
29371;BME280;16357;52.188;7.838;2023-02-13T03:15:17;102987.47;;;11.16;60.45
29371;BME280;16357;52.188;7.838;2023-02-13T03:17:44;102984.91;;;11.14;60.71
29371;BME280;16357;52.188;7.838;2023-02-13T03:20:48;102989.44;;;11.14;60.67
29371;BME280;16357;52.188;7.838;2023-02-13T03:23:50;102993.94;;;11.13;60.51
29371;BME280;16357;52.188;7.838;2023-02-13T03:26:31;102983.31;;;11.12;60.56
29371;BME280;16357;52.188;7.838;2023-02-13T03:32:22;102984.25;;;11.11;60.58
29371;BME280;16357;52.188;7.838;2023-02-13T03:35:02;102982.53;;;11.10;60.62
29371;BME280;16357;52.188;7.838;2023-02-13T03:37:50;102990.59;;;11.10;60.87
29371;BME280;16357;52.188;7.838;2023-02-13T03:40:35;102990.59;;;11.10;60.78
29371;BME280;16357;52.188;7.838;2023-02-13T03:43:12;102995.88;;;11.11;60.56
29371;BME280;16357;52.188;7.838;2023-02-13T03:45:43;102993.06;;;11.13;60.63
29371;BME280;16357;52.188;7.838;2023-02-13T03:48:26;103000.19;;;11.14;60.66
29371;BME280;16357;52.188;7.838;2023-02-13T03:51:27;102995.53;;;11.16;60.40
29371;BME280;16357;52.188;7.838;2023-02-13T03:53:59;102992.13;;;11.14;60.75
29371;BME280;16357;52.188;7.838;2023-02-13T03:56:29;102990.16;;;11.16;60.45
29371;BME280;16357;52.188;7.838;2023-02-13T03:59:20;102992.84;;;11.16;60.58
29371;BME280;16357;52.188;7.838;2023-02-13T04:02:05;102985.78;;;11.15;60.47
29371;BME280;16357;52.188;7.838;2023-02-13T04:04:45;102982.09;;;11.16;60.43
29371;BME280;16357;52.188;7.838;2023-02-13T04:07:17;102986.63;;;11.15;60.51
29371;BME280;16357;52.188;7.838;2023-02-13T04:10:05;102989.44;;;11.14;60.42
29371;BME280;16357;52.188;7.838;2023-02-13T04:12:38;102981.38;;;11.14;60.41
29371;BME280;16357;52.188;7.838;2023-02-13T04:15:24;102985.00;;;11.13;60.64
29371;BME280;16357;52.188;7.838;2023-02-13T04:18:02;102987.59;;;11.14;60.51
29371;BME280;16357;52.188;7.838;2023-02-13T04:20:31;102983.31;;;11.12;60.53
29371;BME280;16357;52.188;7.838;2023-02-13T04:23:03;102991.34;;;11.12;60.71
29371;BME280;16357;52.188;7.838;2023-02-13T04:25:30;102989.63;;;11.11;60.53
29371;BME280;16357;52.188;7.838;2023-02-13T04:27:56;102985.13;;;11.11;60.53
29371;BME280;16357;52.188;7.838;2023-02-13T04:30:23;102988.78;;;11.10;60.41
29371;BME280;16357;52.188;7.838;2023-02-13T04:32:49;102978.88;;;11.11;60.59
29371;BME280;16357;52.188;7.838;2023-02-13T04:35:17;102985.22;;;11.10;60.48
29371;BME280;16357;52.188;7.838;2023-02-13T04:37:44;102987.91;;;11.10;60.53
29371;BME280;16357;52.188;7.838;2023-02-13T04:40:10;102984.38;;;11.09;60.41
29371;BME280;16357;52.188;7.838;2023-02-13T04:42:37;102986.19;;;11.09;60.39
29371;BME280;16357;52.188;7.838;2023-02-13T04:45:04;102988.13;;;11.07;60.66
29371;BME280;16357;52.188;7.838;2023-02-13T04:47:31;102988.22;;;11.05;60.46
29371;BME280;16357;52.188;7.838;2023-02-13T04:49:58;102988.22;;;11.05;60.56
29371;BME280;16357;52.188;7.838;2023-02-13T04:52:24;102986.50;;;11.04;60.32
29371;BME280;16357;52.188;7.838;2023-02-13T04:54:50;102981.22;;;11.03;60.57
29371;BME280;16357;52.188;7.838;2023-02-13T04:57:17;102986.59;;;11.03;60.48
29371;BME280;16357;52.188;7.838;2023-02-13T04:59:43;102982.97;;;11.04;60.70
29371;BME280;16357;52.188;7.838;2023-02-13T05:02:09;102989.19;;;11.04;60.56
29371;BME280;16357;52.188;7.838;2023-02-13T05:04:36;102984.75;;;11.03;60.51
29371;BME280;16357;52.188;7.838;2023-02-13T05:07:02;102989.06;;;11.06;60.63
29371;BME280;16357;52.188;7.838;2023-02-13T05:09:28;102978.44;;;11.04;60.36
29371;BME280;16357;52.188;7.838;2023-02-13T05:11:55;102974.91;;;11.04;60.45
29371;BME280;16357;52.188;7.838;2023-02-13T05:14:21;102976.63;;;11.05;60.43
29371;BME280;16357;52.188;7.838;2023-02-13T05:16:48;102982.97;;;11.04;60.40
29371;BME280;16357;52.188;7.838;2023-02-13T05:19:15;102979.41;;;11.03;60.54
29371;BME280;16357;52.188;7.838;2023-02-13T05:21:42;102978.53;;;11.03;60.30
29371;BME280;16357;52.188;7.838;2023-02-13T05:24:27;102985.75;;;11.02;60.25
29371;BME280;16357;52.188;7.838;2023-02-13T05:26:53;102979.53;;;11.02;60.33
29371;BME280;16357;52.188;7.838;2023-02-13T05:29:20;102988.56;;;11.01;60.27
29371;BME280;16357;52.188;7.838;2023-02-13T05:31:52;102994.78;;;11.01;60.33
29371;BME280;16357;52.188;7.838;2023-02-13T05:34:20;102985.19;;;10.97;60.45
29371;BME280;16357;52.188;7.838;2023-02-13T05:36:47;102987.88;;;10.97;60.54
29371;BME280;16357;52.188;7.838;2023-02-13T05:39:14;102991.53;;;10.96;60.37
29371;BME280;16357;52.188;7.838;2023-02-13T05:41:44;102984.34;;;10.96;60.40
29371;BME280;16357;52.188;7.838;2023-02-13T05:44:12;102991.63;;;10.94;60.63
29371;BME280;16357;52.188;7.838;2023-02-13T05:46:40;102980.03;;;10.94;60.39
29371;BME280;16357;52.188;7.838;2023-02-13T05:49:08;102981.88;;;10.93;60.45
29371;BME280;16357;52.188;7.838;2023-02-13T05:51:35;102981.88;;;10.93;60.63
29371;BME280;16357;52.188;7.838;2023-02-13T05:54:02;102985.50;;;10.92;60.61
29371;BME280;16357;52.188;7.838;2023-02-13T05:56:29;102992.59;;;10.93;60.66
29371;BME280;16357;52.188;7.838;2023-02-13T05:58:56;102991.75;;;10.93;60.67
29371;BME280;16357;52.188;7.838;2023-02-13T06:01:23;102986.38;;;10.93;60.48
29371;BME280;16357;52.188;7.838;2023-02-13T06:03:50;102989.81;;;10.95;60.35
29371;BME280;16357;52.188;7.838;2023-02-13T06:06:16;103000.53;;;10.95;60.42
29371;BME280;16357;52.188;7.838;2023-02-13T06:08:43;102998.84;;;10.94;60.40
29371;BME280;16357;52.188;7.838;2023-02-13T06:11:10;103005.06;;;10.94;60.69
29371;BME280;16357;52.188;7.838;2023-02-13T06:13:36;103005.19;;;10.93;60.67
29371;BME280;16357;52.188;7.838;2023-02-13T06:16:07;103003.34;;;10.93;60.60
29371;BME280;16357;52.188;7.838;2023-02-13T06:18:33;103008.72;;;10.93;60.62
29371;BME280;16357;52.188;7.838;2023-02-13T06:21:01;103002.50;;;10.93;60.46
29371;BME280;16357;52.188;7.838;2023-02-13T06:23:27;103004.28;;;10.92;60.59
29371;BME280;16357;52.188;7.838;2023-02-13T06:25:54;103000.75;;;10.92;60.59
29371;BME280;16357;52.188;7.838;2023-02-13T06:28:20;103007.09;;;10.91;60.71
29371;BME280;16357;52.188;7.838;2023-02-13T06:30:47;103002.69;;;10.90;60.55
29371;BME280;16357;52.188;7.838;2023-02-13T06:33:14;103011.63;;;10.90;60.69
29371;BME280;16357;52.188;7.838;2023-02-13T06:35:40;103008.03;;;10.90;60.77
29371;BME280;16357;52.188;7.838;2023-02-13T06:38:06;103009.88;;;10.89;60.57
29371;BME280;16357;52.188;7.838;2023-02-13T06:40:33;103003.56;;;10.90;60.61
29371;BME280;16357;52.188;7.838;2023-02-13T06:42:59;103013.41;;;10.90;60.44
29371;BME280;16357;52.188;7.838;2023-02-13T06:45:26;103017.00;;;10.90;60.55
29371;BME280;16357;52.188;7.838;2023-02-13T06:47:52;103023.31;;;10.89;60.87
29371;BME280;16357;52.188;7.838;2023-02-13T06:50:19;103016.22;;;10.88;60.60
29371;BME280;16357;52.188;7.838;2023-02-13T06:52:50;103024.16;;;10.90;60.72
29371;BME280;16357;52.188;7.838;2023-02-13T06:55:17;103025.13;;;10.89;60.68
29371;BME280;16357;52.188;7.838;2023-02-13T06:57:44;103023.31;;;10.89;60.75
29371;BME280;16357;52.188;7.838;2023-02-13T07:00:12;103025.03;;;10.90;60.70
29371;BME280;16357;52.188;7.838;2023-02-13T07:02:40;103025.78;;;10.92;61.01
29371;BME280;16357;52.188;7.838;2023-02-13T07:05:07;103028.38;;;10.94;60.67
29371;BME280;16357;52.188;7.838;2023-02-13T07:07:35;103021.16;;;10.94;60.64
29371;BME280;16357;52.188;7.838;2023-02-13T07:10:04;103028.28;;;10.95;60.64
29371;BME280;16357;52.188;7.838;2023-02-13T07:12:35;103035.38;;;10.96;60.55
29371;BME280;16357;52.188;7.838;2023-02-13T07:15:05;103020.97;;;10.97;60.44
29371;BME280;16357;52.188;7.838;2023-02-13T07:17:33;103039.66;;;10.99;60.64
29371;BME280;16357;52.188;7.838;2023-02-13T07:19:59;103038.81;;;10.98;60.76
29371;BME280;16357;52.188;7.838;2023-02-13T07:22:26;103044.06;;;11.00;60.63
29371;BME280;16357;52.188;7.838;2023-02-13T07:24:52;103052.03;;;11.02;60.60
29371;BME280;16357;52.188;7.838;2023-02-13T07:27:19;103043.97;;;11.02;60.59
29371;BME280;16357;52.188;7.838;2023-02-13T07:29:48;103047.44;;;11.04;60.46
29371;BME280;16357;52.188;7.838;2023-02-13T07:32:15;103044.75;;;11.04;60.53
29371;BME280;16357;52.188;7.838;2023-02-13T07:34:44;103045.47;;;11.06;60.22
29371;BME280;16357;52.188;7.838;2023-02-13T07:37:28;103045.47;;;11.06;60.46
29371;BME280;16357;52.188;7.838;2023-02-13T07:39:54;103049.91;;;11.07;60.38
29371;BME280;16357;52.188;7.838;2023-02-13T07:42:21;103048.94;;;11.08;60.54
29371;BME280;16357;52.188;7.838;2023-02-13T07:44:47;103048.94;;;11.08;60.30
29371;BME280;16357;52.188;7.838;2023-02-13T07:47:14;103052.38;;;11.10;60.47
29371;BME280;16357;52.188;7.838;2023-02-13T07:49:40;103055.84;;;11.12;60.31
29371;BME280;16357;52.188;7.838;2023-02-13T07:52:07;103058.53;;;11.12;60.22
29371;BME280;16357;52.188;7.838;2023-02-13T07:54:33;103055.63;;;11.15;60.17
29371;BME280;16357;52.188;7.838;2023-02-13T07:56:59;103062.69;;;11.16;60.25
29371;BME280;16357;52.188;7.838;2023-02-13T07:59:26;103051.78;;;11.19;60.05
29371;BME280;16357;52.188;7.838;2023-02-13T08:01:52;103049.94;;;11.19;60.03
29371;BME280;16357;52.188;7.838;2023-02-13T08:04:19;103051.66;;;11.20;60.08
29371;BME280;16357;52.188;7.838;2023-02-13T08:06:45;103056.81;;;11.24;60.18
29371;BME280;16357;52.188;7.838;2023-02-13T08:09:19;103055.66;;;11.28;60.14
29371;BME280;16357;52.188;7.838;2023-02-13T08:12:07;103052.84;;;11.29;60.06
29371;BME280;16357;52.188;7.838;2023-02-13T08:14:34;103050.94;;;11.31;59.88
29371;BME280;16357;52.188;7.838;2023-02-13T08:17:00;103049.84;;;11.34;59.66
29371;BME280;16357;52.188;7.838;2023-02-13T08:19:27;103047.94;;;11.36;59.64
29371;BME280;16357;52.188;7.838;2023-02-13T08:21:53;103047.84;;;11.37;59.80
29371;BME280;16357;52.188;7.838;2023-02-13T08:24:20;103044.94;;;11.40;59.92
29371;BME280;16357;52.188;7.838;2023-02-13T08:26:47;103048.34;;;11.42;59.53
29371;BME280;16357;52.188;7.838;2023-02-13T08:29:13;103041.06;;;11.45;59.72
29371;BME280;16357;52.188;7.838;2023-02-13T08:31:39;103052.47;;;11.48;59.85
29371;BME280;16357;52.188;7.838;2023-02-13T08:34:06;103046.03;;;11.51;59.67
29371;BME280;16357;52.188;7.838;2023-02-13T08:36:32;103050.34;;;11.53;59.39
29371;BME280;16357;52.188;7.838;2023-02-13T08:38:59;103048.38;;;11.55;59.36
29371;BME280;16357;52.188;7.838;2023-02-13T08:41:25;103052.69;;;11.58;59.49
29371;BME280;16357;52.188;7.838;2023-02-13T08:43:53;103055.16;;;11.61;59.28
29371;BME280;16357;52.188;7.838;2023-02-13T08:46:19;103053.22;;;11.63;59.28
29371;BME280;16357;52.188;7.838;2023-02-13T08:48:46;103045.94;;;11.65;59.12
29371;BME280;16357;52.188;7.838;2023-02-13T08:51:13;103045.84;;;11.67;59.14
29371;BME280;16357;52.188;7.838;2023-02-13T08:53:39;103055.50;;;11.69;59.18
29371;BME280;16357;52.188;7.838;2023-02-13T08:56:08;103059.91;;;11.70;59.06
29371;BME280;16357;52.188;7.838;2023-02-13T08:58:34;103057.84;;;11.74;58.99
29371;BME280;16357;52.188;7.838;2023-02-13T09:01:05;103061.22;;;11.77;59.10
29371;BME280;16357;52.188;7.838;2023-02-13T09:03:32;103065.53;;;11.80;59.01
29371;BME280;16357;52.188;7.838;2023-02-13T09:06:00;103063.56;;;11.82;59.05
29371;BME280;16357;52.188;7.838;2023-02-13T09:08:27;103065.13;;;11.86;58.90
29371;BME280;16357;52.188;7.838;2023-02-13T09:10:56;103072.97;;;11.89;58.66
29371;BME280;16357;52.188;7.838;2023-02-13T09:13:23;103055.75;;;11.92;58.72
29371;BME280;16357;52.188;7.838;2023-02-13T09:15:49;103055.53;;;11.95;58.83
29371;BME280;16357;52.188;7.838;2023-02-13T09:18:16;103059.72;;;11.99;58.72
29371;BME280;16357;52.188;7.838;2023-02-13T09:20:42;103054.88;;;12.04;58.68
29371;BME280;16357;52.188;7.838;2023-02-13T09:23:08;103059.06;;;12.08;58.48
29371;BME280;16357;52.188;7.838;2023-02-13T09:25:35;103064.13;;;12.13;58.19
29371;BME280;16357;52.188;7.838;2023-02-13T09:28:01;103054.97;;;12.15;58.18
29371;BME280;16357;52.188;7.838;2023-02-13T09:30:28;103060.97;;;12.19;58.19
29371;BME280;16357;52.188;7.838;2023-02-13T09:32:54;103048.28;;;12.21;57.72
29371;BME280;16357;52.188;7.838;2023-02-13T09:35:21;103057.88;;;12.25;58.10
29371;BME280;16357;52.188;7.838;2023-02-13T09:37:48;103058.50;;;12.28;57.79
29371;BME280;16357;52.188;7.838;2023-02-13T09:40:23;103061.63;;;12.35;58.04
29371;BME280;16357;52.188;7.838;2023-02-13T09:42:51;103058.56;;;12.40;57.94
29371;BME280;16357;52.188;7.838;2023-02-13T09:45:20;103057.16;;;12.47;57.85
29371;BME280;16357;52.188;7.838;2023-02-13T09:47:47;103051.31;;;12.53;58.01
29371;BME280;16357;52.188;7.838;2023-02-13T09:50:20;103056.28;;;12.59;57.62
29371;BME280;16357;52.188;7.838;2023-02-13T09:52:51;103057.44;;;12.68;57.47
29371;BME280;16357;52.188;7.838;2023-02-13T09:55:22;103052.31;;;12.76;57.35
29371;BME280;16357;52.188;7.838;2023-02-13T09:58:00;103058.13;;;12.83;57.22
29371;BME280;16357;52.188;7.838;2023-02-13T10:00:46;103059.38;;;12.90;56.80
29371;BME280;16357;52.188;7.838;2023-02-13T10:08:58;103068.06;;;13.06;55.98
29371;BME280;16357;52.188;7.838;2023-02-13T10:11:34;103067.81;;;13.09;55.90
29371;BME280;16357;52.188;7.838;2023-02-13T10:14:17;103075.44;;;13.15;56.14
29371;BME280;16357;52.188;7.838;2023-02-13T10:16:58;103075.94;;;13.21;55.84
29371;BME280;16357;52.188;7.838;2023-02-13T10:19:42;103071.94;;;13.26;55.73
29371;BME280;16357;52.188;7.838;2023-02-13T10:22:15;103069.66;;;13.33;55.76
29371;BME280;16357;52.188;7.838;2023-02-13T10:24:47;103075.56;;;13.38;55.38
29371;BME280;16357;52.188;7.838;2023-02-13T10:27:21;103071.63;;;13.42;55.28
29371;BME280;16357;52.188;7.838;2023-02-13T10:30:04;103074.84;;;13.47;55.08
29371;BME280;16357;52.188;7.838;2023-02-13T10:35:36;103074.25;;;13.55;54.69
29371;BME280;16357;52.188;7.838;2023-02-13T10:38:15;103065.91;;;13.58;54.44
29371;BME280;16357;52.188;7.838;2023-02-13T10:41:02;103063.97;;;13.60;54.28
29371;BME280;16357;52.188;7.838;2023-02-13T10:43:56;103055.78;;;13.61;53.88
29371;BME280;16357;52.188;7.838;2023-02-13T10:52:53;103064.38;;;13.67;53.96
29371;BME280;16357;52.188;7.838;2023-02-13T10:58:06;103063.28;;;13.69;53.63
29371;BME280;16357;52.188;7.838;2023-02-13T11:00:46;103054.19;;;13.70;53.53
29371;BME280;16357;52.188;7.838;2023-02-13T11:03:20;103058.47;;;13.73;53.52
29371;BME280;16357;52.188;7.838;2023-02-13T11:05:48;103048.44;;;13.75;52.92
29371;BME280;16357;52.188;7.838;2023-02-13T11:08:18;103055.28;;;13.79;52.95
29371;BME280;16357;52.188;7.838;2023-02-13T11:10:45;103059.47;;;13.83;52.28
29371;BME280;16357;52.188;7.838;2023-02-13T11:13:23;103054.59;;;13.88;52.77
29371;BME280;16357;52.188;7.838;2023-02-13T11:15:59;103042.44;;;13.94;52.71
29371;BME280;16357;52.188;7.838;2023-02-13T11:18:30;103040.47;;;13.96;52.62
29371;BME280;16357;52.188;7.838;2023-02-13T11:21:20;103031.03;;;14.01;52.83
29371;BME280;16357;52.188;7.838;2023-02-13T11:23:54;103028.81;;;14.07;52.36
29371;BME280;16357;52.188;7.838;2023-02-13T11:26:34;103029.44;;;14.10;52.29
29371;BME280;16357;52.188;7.838;2023-02-13T11:29:15;103027.22;;;14.15;52.18
29371;BME280;16357;52.188;7.838;2023-02-13T11:31:43;103025.13;;;14.19;51.65
29371;BME280;16357;52.188;7.838;2023-02-13T11:34:27;103034.44;;;14.26;51.88
29371;BME280;16357;52.188;7.838;2023-02-13T11:39:41;103015.78;;;14.34;51.55
29371;BME280;16357;52.188;7.838;2023-02-13T11:42:30;103017.00;;;14.41;51.44
29371;BME280;16357;52.188;7.838;2023-02-13T11:45:00;103016.75;;;14.44;51.03
29371;BME280;16357;52.188;7.838;2023-02-13T11:47:41;103011.09;;;14.47;51.15
29371;BME280;16357;52.188;7.838;2023-02-13T11:50:27;103014.53;;;14.49;50.95
29371;BME280;16357;52.188;7.838;2023-02-13T11:52:57;103010.81;;;14.50;50.73
29371;BME280;16357;52.188;7.838;2023-02-13T11:58:02;103006.09;;;14.54;50.83
29371;BME280;16357;52.188;7.838;2023-02-13T12:00:34;103007.69;;;14.57;50.75
29371;BME280;16357;52.188;7.838;2023-02-13T12:08:26;102983.63;;;14.54;50.20
29371;BME280;16357;52.188;7.838;2023-02-13T12:10:53;102989.22;;;14.50;50.31
29371;BME280;16357;52.188;7.838;2023-02-13T12:13:30;102984.69;;;14.51;50.88
29371;BME280;16357;52.188;7.838;2023-02-13T12:16:02;102979.31;;;14.51;50.72
29371;BME280;16357;52.188;7.838;2023-02-13T12:18:36;102977.34;;;14.53;50.60
29371;BME280;16357;52.188;7.838;2023-02-13T12:26:34;102982.50;;;14.56;50.25
29371;BME280;16357;52.188;7.838;2023-02-13T12:37:38;102961.63;;;14.47;50.32
29371;BME280;16357;52.188;7.838;2023-02-13T12:40:25;102962.72;;;14.44;50.20
29371;BME280;16357;52.188;7.838;2023-02-13T12:46:02;102957.69;;;14.40;50.33
29371;BME280;16357;52.188;7.838;2023-02-13T12:51:19;102947.53;;;14.32;50.30
29371;BME280;16357;52.188;7.838;2023-02-13T12:56:44;102944.50;;;14.25;50.19
29371;BME280;16357;52.188;7.838;2023-02-13T13:08:30;102927.94;;;14.19;50.69
29371;BME280;16357;52.188;7.838;2023-02-13T13:19:36;102928.94;;;14.18;50.62
29371;BME280;16357;52.188;7.838;2023-02-13T13:22:17;102931.63;;;14.18;50.83
29371;BME280;16357;52.188;7.838;2023-02-13T13:27:19;102918.13;;;14.18;50.85
29371;BME280;16357;52.188;7.838;2023-02-13T13:29:56;102914.44;;;14.19;50.85
29371;BME280;16357;52.188;7.838;2023-02-13T13:32:25;102904.53;;;14.19;49.99
29371;BME280;16357;52.188;7.838;2023-02-13T13:34:52;102899.97;;;14.20;50.25
29371;BME280;16357;52.188;7.838;2023-02-13T13:40:04;102894.44;;;14.21;50.37
29371;BME280;16357;52.188;7.838;2023-02-13T13:50:47;102898.25;;;14.19;50.17
29371;BME280;16357;52.188;7.838;2023-02-13T13:53:16;102895.69;;;14.17;50.13
29371;BME280;16357;52.188;7.838;2023-02-13T14:03:41;102896.78;;;14.15;50.65
29371;BME280;16357;52.188;7.838;2023-02-13T14:07:13;102899.34;;;14.16;50.87
29371;BME280;16357;52.188;7.838;2023-02-13T14:11:54;102885.72;;;14.18;50.34
29371;BME280;16357;52.188;7.838;2023-02-13T14:17:12;102888.19;;;14.21;50.38
29371;BME280;16357;52.188;7.838;2023-02-13T14:19:49;102881.19;;;14.18;50.43
29371;BME280;16357;52.188;7.838;2023-02-13T14:22:33;102879.34;;;14.19;50.67
29371;BME280;16357;52.188;7.838;2023-02-13T14:25:04;102878.63;;;14.17;50.54
29371;BME280;16357;52.188;7.838;2023-02-13T14:27:36;102875.06;;;14.16;50.56
29371;BME280;16357;52.188;7.838;2023-02-13T14:30:06;102881.56;;;14.14;50.48
29371;BME280;16357;52.188;7.838;2023-02-13T14:32:49;102882.56;;;14.13;50.57
29371;BME280;16357;52.188;7.838;2023-02-13T14:35:27;102878.16;;;14.12;50.53
29371;BME280;16357;52.188;7.838;2023-02-13T14:37:57;102876.41;;;14.11;50.62
29371;BME280;16357;52.188;7.838;2023-02-13T14:48:35;102866.75;;;14.08;50.50
29371;BME280;16357;52.188;7.838;2023-02-13T14:51:05;102866.16;;;14.04;50.31
29371;BME280;16357;52.188;7.838;2023-02-13T14:54:01;102864.56;;;14.02;50.75
29371;BME280;16357;52.188;7.838;2023-02-13T14:56:29;102863.09;;;13.98;50.53
29371;BME280;16357;52.188;7.838;2023-02-13T14:59:16;102857.09;;;13.94;50.65
29371;BME280;16357;52.188;7.838;2023-02-13T15:02:00;102848.41;;;13.91;50.38
29371;BME280;16357;52.188;7.838;2023-02-13T15:04:45;102857.59;;;13.88;50.69
29371;BME280;16357;52.188;7.838;2023-02-13T15:07:16;102849.88;;;13.83;50.33
29371;BME280;16357;52.188;7.838;2023-02-13T15:09:52;102852.00;;;13.80;50.55
29371;BME280;16357;52.188;7.838;2023-02-13T15:12:35;102854.91;;;13.77;50.62
29371;BME280;16357;52.188;7.838;2023-02-13T15:15:21;102857.16;;;13.72;50.71
29371;BME280;16357;52.188;7.838;2023-02-13T15:17:48;102851.13;;;13.68;50.58
29371;BME280;16357;52.188;7.838;2023-02-13T15:20:22;102855.94;;;13.65;50.93
29371;BME280;16357;52.188;7.838;2023-02-13T15:22:50;102853.59;;;13.60;50.70